createdAt,value
2022-08-24T00:02:01.275Z,4.70
2022-08-24T00:04:28.660Z,4.50
2022-08-24T00:06:59.346Z,4.97
2022-08-24T00:09:25.838Z,5.43
2022-08-24T00:11:52.232Z,4.50
2022-08-24T00:14:18.678Z,5.20
2022-08-24T00:16:45.203Z,5.00
2022-08-24T00:19:12.086Z,4.60
2022-08-24T00:21:38.493Z,4.13
2022-08-24T00:24:05.607Z,4.93
2022-08-24T00:26:32.013Z,4.50
2022-08-24T00:28:58.723Z,4.37
2022-08-24T00:31:26.014Z,4.97
2022-08-24T00:33:52.496Z,4.87
2022-08-24T00:36:21.510Z,4.63
2022-08-24T00:38:47.969Z,4.63
2022-08-24T00:41:15.418Z,5.10
2022-08-24T00:43:54.122Z,4.67
2022-08-24T00:46:25.951Z,4.47
2022-08-24T00:49:01.595Z,4.73
2022-08-24T00:51:33.194Z,4.43
2022-08-24T00:54:07.478Z,4.47
2022-08-24T00:56:42.135Z,4.77
2022-08-24T00:59:12.045Z,4.87
2022-08-24T01:01:39.327Z,4.67
2022-08-24T01:04:09.822Z,5.17
2022-08-24T01:06:36.589Z,5.30
2022-08-24T01:09:04.832Z,5.27
2022-08-24T01:11:35.040Z,5.33
2022-08-24T01:14:03.209Z,4.70
2022-08-24T01:16:49.340Z,5.80
2022-08-24T01:19:45.897Z,5.53
2022-08-24T01:22:49.314Z,5.33
2022-08-24T01:25:16.640Z,5.80
2022-08-24T01:27:44.116Z,5.50
2022-08-24T01:30:13.683Z,5.83
2022-08-24T01:32:41.619Z,5.00
2022-08-24T01:35:09.156Z,5.60
2022-08-24T01:37:36.159Z,6.47
2022-08-24T01:40:07.296Z,5.67
2022-08-24T01:42:34.891Z,5.30
2022-08-24T01:45:03.170Z,5.37
2022-08-24T01:47:29.701Z,4.97
2022-08-24T01:49:56.174Z,5.30
2022-08-24T01:52:25.555Z,5.23
2022-08-24T01:54:53.045Z,5.20
2022-08-24T01:57:20.374Z,5.47
2022-08-24T01:59:49.529Z,5.50
2022-08-24T02:02:27.220Z,5.30
2022-08-24T02:04:53.999Z,5.90
2022-08-24T02:07:20.422Z,5.20
2022-08-24T02:09:47.316Z,5.53
2022-08-24T02:12:14.886Z,5.13
2022-08-24T02:14:41.567Z,5.63
2022-08-24T02:17:08.764Z,4.93
2022-08-24T02:19:35.922Z,5.70
2022-08-24T02:22:05.979Z,5.47
2022-08-24T02:24:33.083Z,5.77
2022-08-24T02:26:59.485Z,5.77
2022-08-24T02:29:26.073Z,5.33
2022-08-24T02:31:52.484Z,5.63
2022-08-24T02:34:18.924Z,5.57
2022-08-24T02:36:45.698Z,5.80
2022-08-24T02:39:12.543Z,5.70
2022-08-24T02:41:38.904Z,6.00
2022-08-24T02:44:05.946Z,5.30
2022-08-24T02:46:32.480Z,5.20
2022-08-24T02:49:10.616Z,5.00
2022-08-24T02:51:43.943Z,5.70
2022-08-24T02:54:13.134Z,5.40
2022-08-24T02:56:39.658Z,6.23
2022-08-24T02:59:06.083Z,5.30
2022-08-24T03:01:32.696Z,6.27
2022-08-24T03:03:59.125Z,5.33
2022-08-24T03:06:25.574Z,6.07
2022-08-24T03:08:56.634Z,5.60
2022-08-24T03:11:28.018Z,5.80
2022-08-24T03:13:55.700Z,6.30
2022-08-24T03:16:22.194Z,6.20
2022-08-24T03:18:48.795Z,6.27
2022-08-24T03:21:16.179Z,6.20
2022-08-24T03:23:42.660Z,5.60
2022-08-24T03:26:09.065Z,6.00
2022-08-24T03:28:35.473Z,6.47
2022-08-24T03:31:03.312Z,6.23
2022-08-24T03:33:30.133Z,6.33
2022-08-24T03:35:56.777Z,6.13
2022-08-24T03:38:23.401Z,6.47
2022-08-24T03:40:49.985Z,6.20
2022-08-24T03:43:35.473Z,6.03
2022-08-24T03:46:03.020Z,6.07
2022-08-24T03:48:30.502Z,6.93
2022-08-24T03:50:57.362Z,6.10
2022-08-24T03:53:24.078Z,6.70
2022-08-24T03:55:51.077Z,6.60
2022-08-24T03:58:17.826Z,6.10
2022-08-24T04:00:44.677Z,5.90
2022-08-24T04:03:11.817Z,6.60
2022-08-24T04:05:39.640Z,6.30
2022-08-24T04:08:06.570Z,6.40
2022-08-24T04:10:33.550Z,6.40
2022-08-24T04:13:01.482Z,6.10
2022-08-24T04:15:29.919Z,6.40
2022-08-24T04:17:56.300Z,6.50
2022-08-24T04:20:23.990Z,6.10
2022-08-24T04:22:51.374Z,6.57
2022-08-24T04:25:24.695Z,6.30
2022-08-24T04:27:51.945Z,5.53
2022-08-24T04:30:18.553Z,6.47
2022-08-24T04:32:45.250Z,6.53
2022-08-24T04:35:11.719Z,5.80
2022-08-24T04:37:38.555Z,5.87
2022-08-24T04:40:07.280Z,6.67
2022-08-24T04:42:33.825Z,5.83
2022-08-24T04:45:00.277Z,6.07
2022-08-24T04:47:26.687Z,5.80
2022-08-24T04:49:53.085Z,5.90
2022-08-24T04:52:19.438Z,5.53
2022-08-24T04:54:46.644Z,5.73
2022-08-24T04:57:17.948Z,5.33
2022-08-24T04:59:44.683Z,5.73
2022-08-24T05:02:11.181Z,5.90
2022-08-24T05:04:37.636Z,5.93
2022-08-24T05:07:04.829Z,5.23
2022-08-24T05:09:31.696Z,6.00
2022-08-24T05:11:58.229Z,6.23
2022-08-24T05:14:28.583Z,6.13
2022-08-24T05:16:55.484Z,5.07
2022-08-24T05:19:23.217Z,6.13
2022-08-24T05:21:49.696Z,6.00
2022-08-24T05:24:16.229Z,6.07
2022-08-24T05:26:43.516Z,6.03
2022-08-24T05:29:10.633Z,6.50
2022-08-24T05:31:37.345Z,6.30
2022-08-24T05:34:05.162Z,6.30
2022-08-24T05:36:34.573Z,5.60
2022-08-24T05:39:03.992Z,5.70
2022-08-24T05:41:32.374Z,5.60
2022-08-24T05:43:59.161Z,5.57
2022-08-24T05:46:26.089Z,5.47
2022-08-24T05:48:53.364Z,6.17
2022-08-24T05:51:21.296Z,5.20
2022-08-24T05:53:48.012Z,5.93
2022-08-24T05:56:17.024Z,5.60
2022-08-24T05:58:44.262Z,5.60
2022-08-24T06:01:16.890Z,6.20
2022-08-24T06:03:43.537Z,5.33
2022-08-24T06:06:11.100Z,5.50
2022-08-24T06:08:41.660Z,5.20
2022-08-24T06:11:09.565Z,5.00
2022-08-24T06:13:36.266Z,6.07
2022-08-24T06:16:21.538Z,5.40
2022-08-24T06:18:49.720Z,4.97
2022-08-24T06:21:19.170Z,4.97
2022-08-24T06:23:47.911Z,5.70
2022-08-24T06:26:33.903Z,5.13
2022-08-24T06:29:00.636Z,5.13
2022-08-24T06:31:27.871Z,5.13
2022-08-24T06:33:55.682Z,5.27
2022-08-24T06:36:22.986Z,4.70
2022-08-24T06:39:02.292Z,4.70
2022-08-24T06:41:28.742Z,4.40
2022-08-24T06:43:57.762Z,4.90
2022-08-24T06:46:27.336Z,5.13
2022-08-24T06:48:56.277Z,5.23
2022-08-24T06:51:23.461Z,5.07
2022-08-24T06:53:50.668Z,5.00
2022-08-24T06:56:18.578Z,4.80
2022-08-24T06:58:45.509Z,4.50
2022-08-24T07:01:20.973Z,4.50
2022-08-24T07:03:47.508Z,5.00
2022-08-24T07:06:14.718Z,4.30
2022-08-24T07:08:42.969Z,4.60
2022-08-24T07:11:10.773Z,4.80
2022-08-24T07:13:37.209Z,4.20
2022-08-24T07:16:04.621Z,4.43
2022-08-24T07:18:31.033Z,4.40
2022-08-24T07:21:01.286Z,4.20
2022-08-24T07:23:41.274Z,4.70
2022-08-24T07:26:20.807Z,4.40
2022-08-24T07:29:05.792Z,4.10
2022-08-24T07:31:37.187Z,4.90
2022-08-24T07:34:06.342Z,4.70
2022-08-24T07:36:34.321Z,5.13
2022-08-24T07:39:00.882Z,4.57
2022-08-24T07:44:15.536Z,4.67
2022-08-24T07:46:42.510Z,5.00
2022-08-24T07:49:21.399Z,4.63
2022-08-24T07:51:57.270Z,3.90
2022-08-24T07:54:23.816Z,4.57
2022-08-24T07:56:50.246Z,4.13
2022-08-24T07:59:17.371Z,5.00
2022-08-24T08:01:44.023Z,5.07
2022-08-24T08:04:10.613Z,5.10
2022-08-24T08:06:37.457Z,4.47
2022-08-24T08:09:06.097Z,4.30
2022-08-24T08:11:32.709Z,4.63
2022-08-24T08:13:59.452Z,5.13
2022-08-24T08:16:26.230Z,5.83
2022-08-24T08:19:09.186Z,4.80
2022-08-24T08:22:03.254Z,4.80
2022-08-24T08:24:29.669Z,7.60
2022-08-24T08:26:57.695Z,4.80
2022-08-24T08:29:25.142Z,4.37
2022-08-24T08:31:54.442Z,4.23
2022-08-24T08:34:20.960Z,4.50
2022-08-24T08:36:48.024Z,4.60
2022-08-24T08:39:16.552Z,4.67
2022-08-24T08:42:06.228Z,4.87
2022-08-24T08:44:50.448Z,4.83
2022-08-24T08:47:23.348Z,3.87
2022-08-24T08:50:11.485Z,4.43
2022-08-24T08:52:57.305Z,4.93
2022-08-24T08:55:29.147Z,4.27
2022-08-24T08:58:31.265Z,4.80
2022-08-24T09:01:09.581Z,4.50
2022-08-24T09:04:13.618Z,4.47
2022-08-24T09:07:01.838Z,4.40
2022-08-24T09:10:08.337Z,4.23
2022-08-24T09:12:58.575Z,4.50
2022-08-24T09:15:57.458Z,4.17
2022-08-24T09:18:47.874Z,4.70
2022-08-24T09:21:42.689Z,4.47
2022-08-24T09:24:43.693Z,3.97
2022-08-24T09:28:00.493Z,4.97
2022-08-24T09:30:51.969Z,4.90
2022-08-24T09:33:26.693Z,4.40
2022-08-24T09:36:08.406Z,4.87
2022-08-24T09:38:53.574Z,4.53
2022-08-24T09:41:33.431Z,4.40
2022-08-24T09:44:12.200Z,4.60
2022-08-24T09:47:12.430Z,4.50
2022-08-24T09:50:11.312Z,5.27
2022-08-24T09:52:40.514Z,4.90
2022-08-24T09:55:42.786Z,4.80
2022-08-24T09:58:33.270Z,5.00
2022-08-24T10:01:13.392Z,4.77
2022-08-24T10:03:51.427Z,4.63
2022-08-24T10:06:29.369Z,4.30
2022-08-24T10:09:34.016Z,5.10
2022-08-24T10:12:30.585Z,5.30
2022-08-24T10:15:08.569Z,4.87
2022-08-24T10:17:53.645Z,5.50
2022-08-24T10:20:33.957Z,4.77
2022-08-24T10:23:32.533Z,4.80
2022-08-24T10:26:10.964Z,5.70
2022-08-24T10:29:11.143Z,4.90
2022-08-24T10:32:01.791Z,5.00
2022-08-24T10:34:49.156Z,5.70
2022-08-24T10:37:49.468Z,5.10
2022-08-24T10:40:39.660Z,4.50
2022-08-24T10:43:33.767Z,4.40
2022-08-24T10:46:34.721Z,4.60
2022-08-24T10:49:33.289Z,5.00
2022-08-24T10:52:18.564Z,4.63
2022-08-24T10:54:45.613Z,5.00
2022-08-24T10:57:28.359Z,4.63
2022-08-24T11:00:22.615Z,4.50
2022-08-24T11:02:49.959Z,4.93
2022-08-24T11:05:29.664Z,4.40
2022-08-24T11:08:07.036Z,4.23
2022-08-24T11:10:36.526Z,4.73
2022-08-24T11:13:25.609Z,3.90
2022-08-24T11:15:57.765Z,4.07
2022-08-24T11:18:25.080Z,4.20
2022-08-24T11:20:54.986Z,4.83
2022-08-24T11:23:24.835Z,4.50
2022-08-24T11:26:02.773Z,4.10
2022-08-24T11:28:44.177Z,4.27
2022-08-24T11:31:14.249Z,4.57
2022-08-24T11:33:49.910Z,4.30
2022-08-24T11:36:21.104Z,4.23
2022-08-24T11:38:49.494Z,4.27
2022-08-24T11:41:29.549Z,3.63
2022-08-24T11:44:11.616Z,4.50
2022-08-24T11:46:53.373Z,4.30
2022-08-24T11:49:30.203Z,4.30
2022-08-24T11:52:02.612Z,4.23
2022-08-24T11:54:56.248Z,4.10
2022-08-24T11:57:34.667Z,4.30
2022-08-24T12:00:13.879Z,5.10
2022-08-24T12:02:49.123Z,4.40
2022-08-24T12:05:37.226Z,4.70
2022-08-24T12:08:09.743Z,4.43
2022-08-24T12:10:49.292Z,4.47
2022-08-24T12:13:48.175Z,4.77
2022-08-24T12:16:26.753Z,4.77
2022-08-24T12:19:11.575Z,4.23
2022-08-24T12:21:40.791Z,4.53
2022-08-24T12:24:13.893Z,3.90
2022-08-24T12:27:02.584Z,4.37
2022-08-24T12:29:40.908Z,4.27
2022-08-24T12:32:14.429Z,4.17
2022-08-24T12:35:02.380Z,4.07
2022-08-24T12:37:34.794Z,4.17
2022-08-24T12:40:35.837Z,3.90
2022-08-24T12:43:31.164Z,4.20
2022-08-24T12:46:01.298Z,3.60
2022-08-24T12:48:33.650Z,4.40
2022-08-24T12:51:25.846Z,4.20
2022-08-24T12:54:29.575Z,3.80
2022-08-24T12:57:25.675Z,4.10
2022-08-24T13:00:03.832Z,4.20
2022-08-24T13:02:37.199Z,4.23
2022-08-24T13:05:15.857Z,4.43
2022-08-24T13:07:46.510Z,4.17
2022-08-24T13:10:35.240Z,3.90
2022-08-24T13:13:04.555Z,3.80
2022-08-24T13:15:32.109Z,4.03
2022-08-24T13:18:13.773Z,4.03
2022-08-24T13:20:43.153Z,3.93
2022-08-24T13:23:13.233Z,3.90
2022-08-24T13:25:51.412Z,4.80
2022-08-24T13:28:20.919Z,3.83
2022-08-24T13:30:59.765Z,4.10
2022-08-24T13:33:44.830Z,4.33
2022-08-24T13:36:29.529Z,3.90
2022-08-24T13:39:04.344Z,4.50
2022-08-24T13:41:46.478Z,4.10
2022-08-24T13:44:22.201Z,4.17
2022-08-24T13:47:26.073Z,4.10
2022-08-24T13:50:01.732Z,4.10
2022-08-24T13:52:30.904Z,3.67
2022-08-24T13:55:23.293Z,4.10
2022-08-24T13:58:12.734Z,4.13
2022-08-24T14:00:42.409Z,4.10
2022-08-24T14:03:26.976Z,3.70
2022-08-24T14:06:21.465Z,3.70
2022-08-24T14:09:02.616Z,3.40
2022-08-24T14:11:45.982Z,3.60
2022-08-24T14:14:36.737Z,4.03
2022-08-24T14:17:33.517Z,3.90
2022-08-24T14:20:23.705Z,3.60
2022-08-24T14:22:50.013Z,3.70
2022-08-24T14:25:21.383Z,3.73
2022-08-24T14:27:53.905Z,3.93
2022-08-24T14:30:20.362Z,4.00
2022-08-24T14:32:59.062Z,4.20
2022-08-24T14:35:38.048Z,4.00
2022-08-24T14:38:09.118Z,3.70
2022-08-24T14:40:55.134Z,3.80
2022-08-24T14:43:28.584Z,3.80
2022-08-24T14:46:16.564Z,3.63
2022-08-24T14:49:09.099Z,4.37
2022-08-24T14:51:44.353Z,4.37
2022-08-24T14:54:25.277Z,3.90
2022-08-24T14:57:36.663Z,4.00
2022-08-24T15:00:15.073Z,3.90
2022-08-24T15:02:53.329Z,3.57
2022-08-24T15:05:31.950Z,3.40
2022-08-24T15:08:02.205Z,3.83
2022-08-24T15:10:57.149Z,3.60
2022-08-24T15:13:44.474Z,3.87
2022-08-24T15:16:18.972Z,4.10
2022-08-24T15:18:48.078Z,4.00
2022-08-24T15:21:28.668Z,4.80
2022-08-24T15:24:15.483Z,4.07
2022-08-24T15:26:57.335Z,3.97
2022-08-24T15:29:27.229Z,3.70
2022-08-24T15:31:58.941Z,4.00
2022-08-24T15:34:48.629Z,3.97
2022-08-24T15:37:24.762Z,3.97
2022-08-24T15:39:51.220Z,3.90
2022-08-24T15:42:18.129Z,3.40
2022-08-24T15:44:48.870Z,3.73
2022-08-24T15:47:24.065Z,4.00
2022-08-24T15:49:55.161Z,3.63
2022-08-24T15:53:00.146Z,4.10
2022-08-24T15:55:41.020Z,3.60
2022-08-24T15:58:32.512Z,3.70
2022-08-24T16:01:39.401Z,3.80
2022-08-24T16:04:12.272Z,3.83
2022-08-24T16:06:40.631Z,3.77
2022-08-24T16:09:19.711Z,4.23
2022-08-24T16:12:02.132Z,3.70
2022-08-24T16:14:31.192Z,4.10
2022-08-24T16:16:58.754Z,3.80
2022-08-24T16:19:33.151Z,3.67
2022-08-24T16:22:03.260Z,3.80
2022-08-24T16:24:40.877Z,3.60
2022-08-24T16:27:14.060Z,4.03
2022-08-24T16:29:41.765Z,3.80
2022-08-24T16:32:21.567Z,4.20
2022-08-24T16:35:01.343Z,4.10
2022-08-24T16:37:27.706Z,4.60
2022-08-24T16:39:54.275Z,3.93
2022-08-24T16:42:27.151Z,3.80
2022-08-24T16:44:54.271Z,3.80
2022-08-24T16:47:21.746Z,4.27
2022-08-24T16:49:48.719Z,4.03
2022-08-24T16:52:15.405Z,3.70
2022-08-24T16:54:42.130Z,4.40
2022-08-24T16:57:13.814Z,4.13
2022-08-24T16:59:43.831Z,3.70
2022-08-24T17:02:11.842Z,4.30
2022-08-24T17:04:38.676Z,4.03
2022-08-24T17:07:07.733Z,4.10
2022-08-24T17:09:37.589Z,4.53
2022-08-24T17:12:04.584Z,4.17
2022-08-24T17:14:31.074Z,4.23
2022-08-24T17:17:01.094Z,4.20
2022-08-24T17:19:29.925Z,4.20
2022-08-24T17:21:57.695Z,4.13
2022-08-24T17:24:24.339Z,4.57
2022-08-24T17:26:52.132Z,4.17
2022-08-24T17:29:19.932Z,4.43
2022-08-24T17:31:49.695Z,4.30
2022-08-24T17:34:17.660Z,4.60
2022-08-24T17:36:44.952Z,4.60
2022-08-24T17:39:13.268Z,4.27
2022-08-24T17:41:39.664Z,4.40
2022-08-24T17:44:09.496Z,4.97
2022-08-24T17:46:37.126Z,5.13
2022-08-24T17:49:03.859Z,4.17
2022-08-24T17:51:30.297Z,4.10
2022-08-24T17:53:56.713Z,4.90
2022-08-24T17:56:23.789Z,4.40
2022-08-24T17:59:08.832Z,4.43
2022-08-24T18:01:35.269Z,5.10
2022-08-24T18:04:01.635Z,4.73
2022-08-24T18:06:28.765Z,4.83
2022-08-24T18:08:58.086Z,4.77
2022-08-24T18:11:26.278Z,4.60
2022-08-24T18:13:54.273Z,4.83
2022-08-24T18:16:22.993Z,4.80
2022-08-24T18:18:51.777Z,5.10
2022-08-24T18:21:20.056Z,5.13
2022-08-24T18:23:48.334Z,4.70
2022-08-24T18:26:28.127Z,6.90
2022-08-24T18:28:57.499Z,5.60
2022-08-24T18:31:25.768Z,4.80
2022-08-24T18:33:52.358Z,6.07
2022-08-24T18:36:18.752Z,5.30
2022-08-24T18:38:45.154Z,5.23
2022-08-24T18:41:11.709Z,5.10
2022-08-24T18:43:38.412Z,5.30
2022-08-24T18:46:06.108Z,4.73
2022-08-24T18:48:32.650Z,5.40
2022-08-24T18:50:59.335Z,5.20
2022-08-24T18:53:27.552Z,5.17
2022-08-24T18:55:54.006Z,5.50
2022-08-24T18:58:20.705Z,4.97
2022-08-24T19:00:47.823Z,5.30
2022-08-24T19:03:19.267Z,5.87
2022-08-24T19:05:46.340Z,5.50
2022-08-24T19:08:12.989Z,5.50
2022-08-24T19:10:39.524Z,5.40
2022-08-24T19:13:15.227Z,5.53
2022-08-24T19:15:42.724Z,5.50
2022-08-24T19:18:11.003Z,5.73
2022-08-24T19:20:44.643Z,5.67
2022-08-24T19:23:17.564Z,4.83
2022-08-24T19:25:45.296Z,5.70
2022-08-24T19:28:12.158Z,6.23
2022-08-24T19:30:39.349Z,5.80
2022-08-24T19:33:09.370Z,5.63
2022-08-24T19:35:40.038Z,5.70
2022-08-24T19:38:06.422Z,6.40
2022-08-24T19:40:33.442Z,4.83
2022-08-24T19:43:02.103Z,5.57
2022-08-24T19:45:47.210Z,5.13
2022-08-24T19:48:13.588Z,5.10
2022-08-24T19:50:40.386Z,4.90
2022-08-24T19:53:07.148Z,5.70
2022-08-24T19:55:33.647Z,5.10
2022-08-24T19:58:29.348Z,5.17
2022-08-24T20:01:03.099Z,5.80
2022-08-24T20:03:29.740Z,5.57
2022-08-24T20:05:57.088Z,5.30
2022-08-24T20:08:23.453Z,5.90
2022-08-24T20:10:49.887Z,5.17
2022-08-24T20:13:16.379Z,5.30
2022-08-24T20:15:43.567Z,5.43
2022-08-24T20:18:10.492Z,5.23
2022-08-24T20:20:36.913Z,4.87
2022-08-24T20:23:06.144Z,5.10
2022-08-24T20:25:37.377Z,5.17
2022-08-24T20:28:27.763Z,5.53
2022-08-24T20:30:51.711Z,4.97
2022-08-24T20:33:21.026Z,5.57
2022-08-24T20:35:47.552Z,5.17
2022-08-24T20:38:17.115Z,5.60
2022-08-24T20:40:44.053Z,5.70
2022-08-24T20:43:12.834Z,5.43
2022-08-24T20:45:40.915Z,5.40
2022-08-24T20:48:09.928Z,5.33
2022-08-24T20:50:36.612Z,5.17
2022-08-24T20:53:03.622Z,5.40
2022-08-24T20:55:30.160Z,5.17
2022-08-24T20:58:03.266Z,5.47
2022-08-24T21:00:30.235Z,5.20
2022-08-24T21:02:57.969Z,4.90
2022-08-24T21:05:24.423Z,4.63
2022-08-24T21:07:51.773Z,5.00
2022-08-24T21:10:21.334Z,4.70
2022-08-24T21:12:52.041Z,5.00
2022-08-24T21:15:18.700Z,5.07
2022-08-24T21:17:45.457Z,4.70
2022-08-24T21:20:13.573Z,5.07
2022-08-24T21:22:40.273Z,4.77
2022-08-24T21:25:09.331Z,5.20
2022-08-24T21:27:38.393Z,4.57
2022-08-24T21:30:10.556Z,4.53
2022-08-24T21:32:55.725Z,4.67
2022-08-24T21:35:22.998Z,4.80
2022-08-24T21:37:50.194Z,4.53
2022-08-24T21:40:16.748Z,5.07
2022-08-24T21:42:43.141Z,4.80
2022-08-24T21:45:09.981Z,4.33
2022-08-24T21:47:36.442Z,4.80
2022-08-24T21:50:04.041Z,4.30
2022-08-24T21:52:30.386Z,4.80
2022-08-24T21:54:56.712Z,4.77
2022-08-24T21:57:23.363Z,4.83
2022-08-24T21:59:49.918Z,4.67
2022-08-24T22:02:16.842Z,4.60
2022-08-24T22:04:43.550Z,4.10
2022-08-24T22:07:10.371Z,4.70
2022-08-24T22:09:36.750Z,4.50
2022-08-24T22:12:06.585Z,4.27
2022-08-24T22:14:33.745Z,4.90
2022-08-24T22:17:00.485Z,4.10
2022-08-24T22:19:26.828Z,4.43
2022-08-24T22:21:53.268Z,4.70
2022-08-24T22:24:19.681Z,4.33
2022-08-24T22:26:46.321Z,4.77
2022-08-24T22:29:12.882Z,4.90
2022-08-24T22:31:41.481Z,4.40
2022-08-24T22:34:11.532Z,4.23
2022-08-24T22:36:42.636Z,4.77
2022-08-24T22:39:11.674Z,4.50
2022-08-24T22:41:39.112Z,4.23
2022-08-24T22:44:21.814Z,4.30
2022-08-24T22:46:52.059Z,4.57
2022-08-24T22:49:21.177Z,4.27
2022-08-24T22:51:47.931Z,4.80
2022-08-24T22:54:14.573Z,4.80
2022-08-24T22:56:47.301Z,4.17
2022-08-24T22:59:17.638Z,4.40
2022-08-24T23:01:46.257Z,4.00
2022-08-24T23:04:16.845Z,4.10
2022-08-24T23:06:43.317Z,4.50
2022-08-24T23:09:10.202Z,4.10
2022-08-24T23:11:37.172Z,5.17
2022-08-24T23:14:06.267Z,4.00
2022-08-24T23:16:34.873Z,4.30
2022-08-24T23:19:19.877Z,4.60
2022-08-24T23:21:46.430Z,4.07
2022-08-24T23:24:13.358Z,4.13
2022-08-24T23:26:40.928Z,4.10
2022-08-24T23:29:10.232Z,4.27
2022-08-24T23:31:36.985Z,4.50
2022-08-24T23:34:05.023Z,4.10
2022-08-24T23:36:31.411Z,4.30
2022-08-24T23:38:58.933Z,4.13
2022-08-24T23:41:32.077Z,4.13
2022-08-24T23:44:04.140Z,4.77
2022-08-24T23:46:31.055Z,4.27
2022-08-24T23:49:00.532Z,4.13
2022-08-24T23:51:30.041Z,4.37
2022-08-24T23:53:57.021Z,4.27
2022-08-24T23:56:31.632Z,4.00
2022-08-24T23:59:06.392Z,4.50
